Time;durP1;ratioP1;P1;durP2;ratioP2;P2;SDS_P1;SDS_P2;PMS_P1;PMS_P2;Temp;Humidity;BMP_temperature;BMP_pressure;BME280_temperature;BME280_humidity;BME280_pressure;Samples;Min_cycle;Max_cycle;Signal;HPM_P1;HPM_P2
2023/04/19 00:00:07;;;;;;;1.73;0.47;;;18.30;37.80;;;;;;6197761;22;20233;-86
2023/04/19 00:02:38;;;;;;;1.85;0.55;;;18.30;37.90;;;;;;6197426;23;20131;-86
2023/04/19 00:05:14;;;;;;;0.85;0.38;;;18.20;37.90;;;;;;6224254;22;20174;-86
2023/04/19 00:07:50;;;;;;;0.68;0.68;;;18.20;37.90;;;;;;6274857;22;20151;-86
2023/04/19 00:10:16;;;;;;;0.50;0.50;;;18.20;37.90;;;;;;6279070;22;20611;-86
2023/04/19 00:13:07;;;;;;;0.50;0.50;;;18.20;37.90;;;;;;6264548;22;20221;-86
2023/04/19 00:15:35;;;;;;;1.00;0.60;;;18.30;38.00;;;;;;6169291;22;20163;-86
2023/04/19 00:18:11;;;;;;;1.05;0.65;;;18.20;38.10;;;;;;6239669;22;20152;-87
2023/04/19 00:20:47;;;;;;;2.25;0.80;;;18.20;38.10;;;;;;6239207;22;20589;-87
2023/04/19 00:23:26;;;;;;;0.50;0.50;;;18.20;38.10;;;;;;6239863;22;20235;-87
2023/04/19 00:25:54;;;;;;;2.30;0.52;;;18.20;38.00;;;;;;6173314;23;20201;-87
2023/04/19 00:28:20;;;;;;;1.10;0.60;;;18.20;38.20;;;;;;6175018;23;20158;-87
2023/04/19 00:30:50;;;;;;;0.55;0.55;;;18.20;38.20;;;;;;6174264;23;20159;-87
2023/04/19 00:33:24;;;;;;;0.70;0.50;;;18.10;38.10;;;;;;6173558;23;20189;-86
2023/04/19 00:35:54;;;;;;;1.30;0.68;;;18.30;38.20;;;;;;6124795;23;20146;-86
2023/04/19 00:38:31;;;;;;;1.20;0.50;;;18.20;38.10;;;;;;6148261;23;20221;-86
2023/04/19 00:41:07;;;;;;;0.70;0.70;;;18.20;38.20;;;;;;6148815;23;20181;-86
2023/04/19 00:43:38;;;;;;;0.75;0.50;;;18.20;38.10;;;;;;6150113;23;20222;-87
2023/04/19 00:46:16;;;;;;;1.35;0.60;;;18.20;38.20;;;;;;6199555;23;20234;-87
2023/04/19 00:48:54;;;;;;;0.40;0.40;;;18.20;38.10;;;;;;6148402;23;20150;-87
2023/04/19 00:51:20;;;;;;;0.60;0.60;;;18.20;38.20;;;;;;6210625;23;20296;-87
2023/04/19 00:53:53;;;;;;;1.05;0.60;;;18.20;38.20;;;;;;6232925;23;20161;-87
2023/04/19 00:56:20;;;;;;;1.00;0.50;;;18.20;38.20;;;;;;6162669;22;20151;-87
2023/04/19 00:59:04;;;;;;;0.65;0.45;;;18.10;38.20;;;;;;6301482;22;20127;-86
2023/04/19 01:01:31;;;;;;;1.88;0.63;;;18.20;38.20;;;;;;6212831;22;20210;-86
2023/04/19 01:04:02;;;;;;;2.53;0.73;;;18.20;38.30;;;;;;6238711;22;20267;-86
2023/04/19 01:06:34;;;;;;;0.82;0.50;;;18.20;38.30;;;;;;6189173;22;20170;-86
2023/04/19 01:09:00;;;;;;;0.65;0.50;;;18.20;38.40;;;;;;6213196;22;20186;-86
2023/04/19 01:11:27;;;;;;;0.50;0.40;;;18.20;38.40;;;;;;6238620;22;20159;-87
2023/04/19 01:13:57;;;;;;;1.23;0.70;;;18.20;38.40;;;;;;6238397;22;20169;-87
2023/04/19 01:16:29;;;;;;;1.45;0.60;;;18.10;38.40;;;;;;6188129;22;20201;-86
2023/04/19 01:19:05;;;;;;;0.57;0.50;;;18.20;38.50;;;;;;6213155;22;20607;-86
2023/04/19 01:21:39;;;;;;;0.68;0.68;;;18.10;38.50;;;;;;6174154;23;20158;-86
2023/04/19 01:24:12;;;;;;;0.85;0.65;;;18.10;38.50;;;;;;6078498;23;20165;-86
2023/04/19 01:26:48;;;;;;;;;;;;;;;;;;;;;
2023/04/19 01:29:17;;;;;;;1.75;0.60;;;18.10;38.50;;;;;;6164134;23;20182;-86
2023/04/19 01:31:52;;;;;;;0.55;0.52;;;18.10;38.50;;;;;;6179627;23;20229;-86
2023/04/19 01:34:29;;;;;;;1.48;0.60;;;18.10;39.20;;;;;;6205017;23;20165;-86
2023/04/19 01:37:05;;;;;;;0.70;0.60;;;18.10;38.50;;;;;;6155644;23;20156;-86
2023/04/19 01:39:37;;;;;;;0.73;0.60;;;18.10;38.50;;;;;;6152862;23;20150;-86
2023/04/19 01:42:15;;;;;;;1.40;0.70;;;18.10;38.60;;;;;;6197847;23;20151;-87
2023/04/19 01:44:44;;;;;;;1.00;0.57;;;18.10;38.60;;;;;;6124241;23;20161;-87
2023/04/19 01:47:21;;;;;;;1.05;0.50;;;18.10;38.60;;;;;;6173394;23;20193;-86
2023/04/19 01:49:47;;;;;;;0.57;0.52;;;18.10;38.60;;;;;;6104521;23;20181;-86
2023/04/19 01:52:22;;;;;;;1.75;0.65;;;18.00;38.50;;;;;;6173266;23;20151;-86
2023/04/19 01:54:58;;;;;;;0.70;0.70;;;18.10;38.60;;;;;;6198527;23;20190;-86
2023/04/19 01:57:24;;;;;;;0.43;0.43;;;18.10;38.60;;;;;;6197762;23;20159;-86
2023/04/19 01:59:54;;;;;;;1.95;0.40;;;18.10;38.60;;;;;;6198874;23;20678;-86
2023/04/19 02:02:23;;;;;;;1.02;0.60;;;18.10;38.70;;;;;;6172778;23;20181;-86
2023/04/19 02:04:53;;;;;;;0.82;0.50;;;18.10;38.50;;;;;;6198259;23;20151;-86
2023/04/19 02:07:19;;;;;;;1.95;0.60;;;18.10;38.60;;;;;;6173052;23;20160;-86
2023/04/19 02:09:58;;;;;;;1.15;0.70;;;18.10;38.70;;;;;;6173709;23;20155;-87
2023/04/19 02:12:28;;;;;;;1.27;0.50;;;18.10;38.80;;;;;;6142588;23;20160;-86
2023/04/19 02:15:23;;;;;;;1.02;0.57;;;18.10;38.70;;;;;;6208757;23;20191;-87
2023/04/19 02:18:12;;;;;;;0.88;0.60;;;18.10;38.60;;;;;;6202080;23;20228;-87
2023/04/19 02:20:44;;;;;;;0.95;0.50;;;18.10;38.70;;;;;;6159199;23;20169;-86
2023/04/19 02:23:16;;;;;;;0.70;0.60;;;18.10;38.60;;;;;;6028366;23;20214;-87
2023/04/19 02:25:44;;;;;;;0.65;0.60;;;18.10;38.60;;;;;;6086647;23;20194;-87
2023/04/19 02:28:13;;;;;;;1.15;0.70;;;18.10;38.70;;;;;;6178117;23;20154;-87
2023/04/19 02:30:42;;;;;;;0.43;0.43;;;18.10;38.80;;;;;;6203599;23;20150;-87
2023/04/19 02:33:09;;;;;;;0.77;0.60;;;18.10;38.70;;;;;;6177427;23;20205;-87
2023/04/19 02:35:39;;;;;;;1.75;0.65;;;18.20;38.70;;;;;;6203030;23;20200;-87
2023/04/19 02:38:31;;;;;;;1.83;0.70;;;18.10;38.80;;;;;;6153905;23;20154;-87
2023/04/19 02:41:08;;;;;;;0.82;0.60;;;18.10;38.70;;;;;;6217380;23;20213;-87
2023/04/19 02:43:37;;;;;;;0.77;0.55;;;18.10;38.90;;;;;;6209593;23;20156;-87
2023/04/19 02:46:03;;;;;;;1.13;0.60;;;18.00;38.90;;;;;;6208585;23;20149;-86
2023/04/19 02:49:01;;;;;;;0.93;0.60;;;18.10;38.90;;;;;;6232793;23;20157;-86
2023/04/19 02:51:36;;;;;;;0.82;0.50;;;18.10;38.80;;;;;;6215431;23;20176;-86
2023/04/19 02:54:20;;;;;;;1.45;0.60;;;18.10;38.90;;;;;;6191203;22;20539;-86
2023/04/19 02:56:57;;;;;;;0.60;0.57;;;18.10;38.80;;;;;;6278875;22;20147;-87
2023/04/19 02:59:31;;;;;;;0.80;0.57;;;18.10;38.90;;;;;;6249967;22;20150;-86
2023/04/19 03:02:08;;;;;;;1.13;0.60;;;18.10;39.00;;;;;;6251543;22;20192;-87
2023/04/19 03:04:39;;;;;;;0.57;0.52;;;18.10;38.90;;;;;;6303176;22;20147;-87
2023/04/19 03:07:09;;;;;;;1.05;0.52;;;18.10;38.90;;;;;;6275849;22;20160;-86
2023/04/19 03:09:35;;;;;;;0.60;0.50;;;18.00;38.90;;;;;;6251844;22;20155;-86
2023/04/19 03:12:09;;;;;;;0.80;0.47;;;18.00;39.00;;;;;;6301869;22;20147;-87
2023/04/19 03:14:40;;;;;;;0.60;0.55;;;18.10;39.00;;;;;;6250266;22;20194;-86
2023/04/19 03:17:14;;;;;;;1.70;0.60;;;18.00;39.00;;;;;;6225247;22;20151;-87
2023/04/19 03:19:54;;;;;;;0.93;0.57;;;18.10;39.10;;;;;;6276775;22;20222;-87
2023/04/19 03:22:43;;;;;;;0.70;0.60;;;18.00;39.00;;;;;;6227184;22;20210;-87
2023/04/19 03:25:11;;;;;;;0.82;0.50;;;18.00;38.90;;;;;;6282313;22;20222;-87
2023/04/19 03:27:40;;;;;;;0.55;0.50;;;18.10;39.00;;;;;;6275048;22;20190;-86
2023/04/19 03:30:14;;;;;;;0.90;0.60;;;18.00;39.00;;;;;;6298689;22;20155;-86
2023/04/19 03:32:46;;;;;;;0.60;0.60;;;18.00;39.00;;;;;;6224496;22;20154;-87
2023/04/19 03:35:19;;;;;;;0.57;0.57;;;18.10;39.00;;;;;;6275809;22;20178;-87
2023/04/19 03:37:49;;;;;;;1.05;0.50;;;18.10;39.10;;;;;;6249355;22;20154;-87
2023/04/19 03:40:26;;;;;;;1.08;0.52;;;18.10;39.00;;;;;;6249216;22;20158;-87
2023/04/19 03:43:08;;;;;;;1.17;0.40;;;18.10;39.00;;;;;;6248823;22;20180;-87
2023/04/19 03:45:47;;;;;;;0.60;0.52;;;18.00;39.20;;;;;;6252417;22;20170;-87
2023/04/19 03:48:13;;;;;;;0.70;0.68;;;18.00;39.10;;;;;;6225097;22;20155;-87
2023/04/19 03:50:42;;;;;;;0.93;0.50;;;18.00;39.10;;;;;;6276257;22;20171;-87
2023/04/19 03:53:11;;;;;;;1.00;0.45;;;18.00;39.30;;;;;;6301394;22;20159;-87
2023/04/19 03:55:44;;;;;;;0.70;0.60;;;18.00;39.20;;;;;;6275603;22;20143;-86
2023/04/19 03:58:17;;;;;;;1.15;0.47;;;18.00;39.30;;;;;;6183606;23;20149;-86
2023/04/19 04:00:43;;;;;;;1.25;0.70;;;18.00;39.10;;;;;;6174445;23;20149;-87
2023/04/19 04:03:09;;;;;;;0.55;0.52;;;18.00;39.20;;;;;;6174040;23;20158;-87
2023/04/19 04:05:38;;;;;;;0.60;0.50;;;18.00;39.20;;;;;;6148793;23;20281;-87
2023/04/19 04:08:08;;;;;;;0.50;0.50;;;18.00;39.20;;;;;;6174787;23;20150;-86
2023/04/19 04:10:34;;;;;;;1.65;0.43;;;18.00;39.20;;;;;;6125070;23;20155;-87
2023/04/19 04:13:01;;;;;;;0.65;0.60;;;18.00;39.20;;;;;;6198444;23;20238;-87
2023/04/19 04:15:27;;;;;;;0.93;0.55;;;18.10;39.20;;;;;;6199470;23;20138;-87
2023/04/19 04:17:53;;;;;;;1.73;0.60;;;18.00;39.20;;;;;;6173704;23;20151;-87
2023/04/19 04:20:23;;;;;;;0.60;0.50;;;18.00;39.20;;;;;;6173570;23;20150;-86
2023/04/19 04:22:49;;;;;;;0.68;0.57;;;18.00;39.20;;;;;;6123555;23;20147;-86
2023/04/19 04:25:15;;;;;;;1.20;0.60;;;18.00;39.20;;;;;;6167328;23;20574;-85
2023/04/19 04:27:42;;;;;;;0.35;0.32;;;18.10;40.00;;;;;;6141775;23;20132;-86
2023/04/19 04:30:13;;;;;;;1.02;0.50;;;18.00;39.20;;;;;;6222907;23;20152;-86
2023/04/19 04:32:50;;;;;;;0.93;0.52;;;18.00;39.20;;;;;;6180227;23;20693;-86
2023/04/19 04:35:20;;;;;;;0.63;0.60;;;18.00;39.20;;;;;;6180164;23;20163;-85
2023/04/19 04:37:50;;;;;;;0.95;0.68;;;18.10;39.30;;;;;;6150124;22;20238;-85
2023/04/19 04:40:16;;;;;;;0.82;0.55;;;18.00;39.20;;;;;;6163716;23;20155;-86
2023/04/19 04:42:46;;;;;;;0.40;0.40;;;18.10;39.20;;;;;;6160792;23;20207;-86
2023/04/19 04:45:20;;;;;;;1.20;0.60;;;18.10;39.30;;;;;;6186625;22;20201;-85
2023/04/19 04:47:50;;;;;;;0.52;0.50;;;18.00;39.20;;;;;;6211087;23;20158;-86
2023/04/19 04:50:20;;;;;;;0.40;0.40;;;18.10;39.20;;;;;;6210413;23;20155;-86
2023/04/19 04:52:50;;;;;;;0.65;0.65;;;18.10;39.30;;;;;;6183951;23;20156;-86
2023/04/19 04:55:20;;;;;;;0.77;0.50;;;18.10;39.20;;;;;;6160472;23;20147;-86
2023/04/19 04:57:53;;;;;;;0.80;0.70;;;18.10;39.20;;;;;;6159974;23;20164;-86
2023/04/19 05:00:20;;;;;;;0.90;0.50;;;18.10;39.20;;;;;;6160371;22;20482;-86
2023/04/19 05:02:49;;;;;;;0.50;0.50;;;18.10;39.20;;;;;;6235609;22;20175;-86
2023/04/19 05:05:15;;;;;;;0.40;0.40;;;18.10;39.20;;;;;;6159384;22;20162;-86
2023/04/19 05:07:41;;;;;;;1.23;0.60;;;18.20;39.20;;;;;;6211493;23;20147;-85
2023/04/19 05:10:07;;;;;;;0.90;0.63;;;18.20;39.20;;;;;;6233456;22;20132;-85
2023/04/19 05:12:37;;;;;;;0.40;0.40;;;18.20;39.20;;;;;;6256944;22;20132;-86
2023/04/19 05:15:03;;;;;;;0.73;0.60;;;18.10;39.20;;;;;;6203238;23;20252;-84
2023/04/19 05:17:29;;;;;;;1.05;0.52;;;18.10;39.20;;;;;;6254775;22;20505;-85
2023/04/19 05:19:54;;;;;;;0.70;0.60;;;18.20;39.20;;;;;;6229089;23;20163;-84
2023/04/19 05:22:20;;;;;;;0.70;0.65;;;18.20;39.20;;;;;;6229572;23;20515;-84
2023/04/19 05:24:46;;;;;;;0.82;0.60;;;18.10;39.10;;;;;;6229088;23;20479;-84
2023/04/19 05:27:12;;;;;;;0.73;0.73;;;18.20;39.20;;;;;;6259064;22;20204;-84
2023/04/19 05:29:41;;;;;;;0.50;0.50;;;18.20;39.20;;;;;;6235345;22;20204;-84
2023/04/19 05:32:07;;;;;;;0.60;0.60;;;18.30;39.10;;;;;;6183476;22;20155;-84
2023/04/19 05:34:35;;;;;;;0.73;0.60;;;18.20;39.10;;;;;;6260152;22;20182;-84
2023/04/19 05:37:02;;;;;;;0.60;0.60;;;18.20;39.10;;;;;;6235017;22;20526;-85
2023/04/19 05:39:28;;;;;;;0.60;0.60;;;18.20;39.10;;;;;;6285681;22;20131;-84
2023/04/19 05:41:54;;;;;;;0.95;0.60;;;18.10;39.10;;;;;;6184949;23;20139;-88
2023/04/19 05:44:22;;;;;;;1.35;0.57;;;18.20;39.10;;;;;;6260438;22;20155;-85
2023/04/19 05:46:50;;;;;;;1.35;0.80;;;18.30;39.00;;;;;;6207444;22;20776;-85
2023/04/19 05:49:17;;;;;;;1.00;0.70;;;18.30;38.90;;;;;;6234251;22;20158;-84
2023/04/19 05:51:45;;;;;;;2.40;0.50;;;18.30;38.90;;;;;;6238815;22;20154;-84
2023/04/19 05:54:18;;;;;;;0.90;0.60;;;18.30;38.90;;;;;;6236888;23;20186;-85
2023/04/19 05:56:46;;;;;;;3.08;0.68;;;18.30;39.00;;;;;;6243890;22;20574;-85
2023/04/19 05:59:14;;;;;;;2.47;0.63;;;18.40;38.90;;;;;;6244781;22;20158;-86
2023/04/19 06:01:45;;;;;;;0.93;0.70;;;18.40;39.10;;;;;;6246766;22;20151;-85
2023/04/19 06:04:13;;;;;;;1.02;0.70;;;18.50;39.00;;;;;;6222017;22;20155;-85
2023/04/19 06:06:48;;;;;;;0.85;0.60;;;18.40;39.20;;;;;;6212890;22;20189;-87
2023/04/19 06:09:17;;;;;;;2.35;0.70;;;18.40;39.20;;;;;;6185195;22;20154;-85
2023/04/19 06:11:45;;;;;;;0.82;0.50;;;18.40;39.20;;;;;;6233957;23;20583;-85
2023/04/19 06:14:17;;;;;;;1.00;0.70;;;18.30;39.10;;;;;;6184391;22;20208;-90
2023/04/19 06:16:43;;;;;;;0.70;0.40;;;18.40;39.10;;;;;;6194660;23;20155;-85
2023/04/19 06:19:08;;;;;;;1.02;0.50;;;18.40;39.20;;;;;;6194283;23;20145;-84
2023/04/19 06:21:35;;;;;;;0.50;0.40;;;18.40;39.10;;;;;;6219365;23;20152;-86
2023/04/19 06:24:01;;;;;;;0.55;0.43;;;18.40;39.20;;;;;;6193273;23;20149;-84
2023/04/19 06:26:27;;;;;;;0.60;0.50;;;18.40;39.10;;;;;;6193551;23;20545;-85
2023/04/19 06:28:52;;;;;;;0.73;0.60;;;18.40;39.10;;;;;;6193816;23;20150;-85
2023/04/19 06:31:18;;;;;;;0.80;0.70;;;18.40;39.00;;;;;;6219372;23;20647;-85
2023/04/19 06:33:49;;;;;;;1.67;0.70;;;18.40;39.20;;;;;;6195788;23;20169;-85
2023/04/19 06:36:16;;;;;;;0.93;0.70;;;18.50;39.20;;;;;;6224062;23;20256;-84
2023/04/19 06:38:52;;;;;;;1.35;0.80;;;18.40;39.10;;;;;;6223231;23;20138;-85
2023/04/19 06:41:26;;;;;;;0.43;0.43;;;18.30;39.40;;;;;;6192709;23;20145;-85
2023/04/19 06:43:52;;;;;;;1.98;0.63;;;18.30;40.00;;;;;;6224456;23;20176;-85
2023/04/19 06:46:18;;;;;;;0.98;0.68;;;18.40;40.00;;;;;;6198217;23;20154;-83
2023/04/19 06:48:43;;;;;;;0.85;0.55;;;18.40;40.30;;;;;;6224007;23;20133;-83
2023/04/19 06:51:17;;;;;;;0.60;0.57;;;18.50;40.10;;;;;;6197541;23;20145;-85
2023/04/19 06:57:35;;;;;;;0.50;0.50;;;18.40;40.60;;;;;;6148426;23;20178;-85
2023/04/19 07:00:07;;;;;;;1.17;0.40;;;18.30;40.30;;;;;;6167878;23;20147;-85
2023/04/19 07:06:07;;;;;;;1.23;0.68;;;18.40;40.40;;;;;;6032133;23;20253;-85
2023/04/19 07:08:44;;;;;;;1.10;0.65;;;18.50;40.40;;;;;;5994429;23;20177;-85
2023/04/19 07:11:10;;;;;;;0.88;0.68;;;18.30;41.30;;;;;;5994123;23;20165;-85
2023/04/19 07:13:43;;;;;;;2.33;0.65;;;18.30;41.60;;;;;;5994873;23;20186;-85
2023/04/19 07:16:19;;;;;;;1.65;0.50;;;18.30;42.40;;;;;;5996365;23;20161;-86
2023/04/19 07:19:21;;;;;;;1.52;0.60;;;18.30;42.40;;;;;;5997821;23;20165;-88
2023/04/19 07:21:52;;;;;;;1.33;0.70;;;18.30;42.30;;;;;;5938626;24;20159;-86
2023/04/19 07:24:29;;;;;;;0.60;0.40;;;18.20;42.70;;;;;;5960146;24;20153;-87
2023/04/19 07:27:06;;;;;;;1.20;0.70;;;18.30;42.10;;;;;;5936420;24;20403;-86
2023/04/19 07:29:40;;;;;;;0.90;0.68;;;18.50;41.80;;;;;;5963222;24;20196;-87
2023/04/19 07:32:07;;;;;;;1.38;0.70;;;18.50;40.70;;;;;;5951980;23;20191;-88
2023/04/19 07:34:33;;;;;;;1.02;0.60;;;18.70;40.50;;;;;;6073138;23;20189;-83
2023/04/19 07:37:03;;;;;;;1.67;0.65;;;18.70;40.20;;;;;;6027040;23;20240;-85
2023/04/19 07:39:42;;;;;;;1.75;0.80;;;18.70;40.50;;;;;;6056146;23;20474;-85
2023/04/19 07:42:11;;;;;;;3.22;0.65;;;18.70;40.30;;;;;;6168483;22;20186;-85
2023/04/19 07:44:40;;;;;;;0.60;0.50;;;18.70;40.30;;;;;;6180863;22;20148;-85
2023/04/19 07:47:09;;;;;;;1.17;0.47;;;18.60;40.20;;;;;;6231877;22;20240;-84
2023/04/19 07:49:43;;;;;;;0.70;0.60;;;18.70;40.80;;;;;;6230773;22;20156;-85
2023/04/19 07:52:11;;;;;;;0.50;0.50;;;18.70;40.00;;;;;;6147738;23;20154;-85
2023/04/19 07:54:41;;;;;;;0.73;0.50;;;18.70;40.20;;;;;;6169970;23;20565;-83
2023/04/19 07:57:11;;;;;;;0.57;0.32;;;18.80;40.10;;;;;;6124588;23;20514;-86
2023/04/19 07:59:43;;;;;;;0.30;0.30;;;18.80;40.00;;;;;;6174164;23;20150;-85
2023/04/19 08:02:15;;;;;;;0.68;0.40;;;18.80;40.20;;;;;;6123200;23;20149;-86
2023/04/19 08:04:48;;;;;;;0.40;0.40;;;18.90;40.20;;;;;;6170526;23;20242;-84
2023/04/19 08:07:22;;;;;;;1.27;0.52;;;18.80;40.40;;;;;;6113220;23;20155;-85
2023/04/19 08:09:54;;;;;;;0.30;0.30;;;18.80;40.30;;;;;;6088793;23;20162;-84
2023/04/19 08:12:24;;;;;;;0.88;0.60;;;18.80;40.30;;;;;;6065211;23;20155;-85
2023/04/19 08:15:20;;;;;;;0.50;0.50;;;18.90;40.20;;;;;;6064970;23;20182;-83
2023/04/19 08:17:51;;;;;;;0.93;0.60;;;18.90;40.30;;;;;;6104759;23;20175;-85
2023/04/19 08:20:41;;;;;;;0.73;0.30;;;18.90;40.50;;;;;;6168812;23;20293;-84
2023/04/19 08:23:10;;;;;;;2.40;0.50;;;18.80;40.50;;;;;;6165918;23;20157;-85
2023/04/19 08:25:38;;;;;;;0.77;0.40;;;18.80;40.80;;;;;;6018805;23;20275;-85
2023/04/19 08:28:11;;;;;;;0.70;0.50;;;18.80;40.50;;;;;;6148413;23;20146;-84
2023/04/19 08:30:52;;;;;;;0.63;0.43;;;18.80;40.60;;;;;;6146664;23;20246;-85
2023/04/19 08:33:20;;;;;;;2.53;0.50;;;18.80;40.60;;;;;;6141920;23;20178;-84
2023/04/19 08:35:58;;;;;;;1.20;0.50;;;18.80;40.50;;;;;;6101080;23;20215;-83
2023/04/19 08:38:48;;;;;;;;;;;;;;;;;;;;;
2023/04/19 08:42:22;;;;;;;1.23;0.50;;;18.90;40.60;;;;;;6015448;23;20181;-84
2023/04/19 08:45:04;;;;;;;;;;;;;;;;;;;;;
2023/04/19 08:47:31;;;;;;;1.85;0.50;;;18.80;40.60;;;;;;5966776;24;20540;-85
2023/04/19 08:50:24;;;;;;;1.88;0.63;;;18.80;40.80;;;;;;5989930;24;20207;-86
2023/04/19 08:52:50;;;;;;;0.60;0.60;;;18.90;40.70;;;;;;5959588;24;20159;-88
2023/04/19 08:55:20;;;;;;;0.73;0.40;;;18.80;41.00;;;;;;5961568;24;20178;-85
2023/04/19 08:58:07;;;;;;;0.80;0.55;;;18.90;40.90;;;;;;6004347;23;20149;-86
2023/04/19 09:00:42;;;;;;;2.47;0.45;;;18.90;40.40;;;;;;6028040;23;20161;-85
2023/04/19 09:03:38;;;;;;;1.02;0.50;;;19.00;40.50;;;;;;6026853;23;20157;-88
2023/04/19 09:06:10;;;;;;;0.88;0.40;;;18.90;40.60;;;;;;5993394;23;20155;-84
2023/04/19 09:08:37;;;;;;;1.75;0.65;;;18.90;40.70;;;;;;5956037;23;20161;-83
2023/04/19 09:11:40;;;;;;;2.78;0.50;;;18.90;40.70;;;;;;6173364;23;20151;-85
2023/04/19 09:14:14;;;;;;;0.77;0.40;;;18.90;40.80;;;;;;6202968;23;20188;-85
2023/04/19 09:16:41;;;;;;;1.20;0.40;;;18.90;40.50;;;;;;6148181;23;20154;-84
2023/04/19 09:19:08;;;;;;;1.08;0.50;;;18.90;40.40;;;;;;6219934;23;20148;-86
2023/04/19 09:21:34;;;;;;;0.65;0.30;;;18.90;40.50;;;;;;6197018;23;20149;-82
2023/04/19 09:24:05;;;;;;;0.55;0.45;;;18.90;40.30;;;;;;6197738;23;20154;-84
2023/04/19 09:26:35;;;;;;;0.50;0.50;;;19.10;40.00;;;;;;6114086;23;20206;-81
2023/04/19 09:29:06;;;;;;;1.63;0.50;;;19.10;40.10;;;;;;6134837;23;20604;-84
2023/04/19 09:31:33;;;;;;;0.40;0.40;;;19.00;39.90;;;;;;6213052;23;20180;-84
2023/04/19 09:34:16;;;;;;;1.95;0.40;;;19.00;40.00;;;;;;6249053;23;20167;-85
2023/04/19 09:36:47;;;;;;;1.70;0.45;;;19.00;40.10;;;;;;6198251;23;20146;-86
2023/04/19 09:39:13;;;;;;;1.65;0.45;;;18.90;40.00;;;;;;6203231;23;20593;-86
2023/04/19 09:41:55;;;;;;;0.43;0.40;;;18.80;40.20;;;;;;6219760;23;20223;-85
2023/04/19 09:44:24;;;;;;;0.30;0.30;;;18.80;40.10;;;;;;6220063;23;20137;-84
2023/04/19 09:46:52;;;;;;;0.32;0.32;;;18.90;39.80;;;;;;6220977;23;20184;-86
2023/04/19 09:49:23;;;;;;;0.40;0.40;;;19.00;39.70;;;;;;6197512;23;20145;-85
2023/04/19 09:51:52;;;;;;;0.40;0.40;;;19.00;39.50;;;;;;6171401;23;20199;-84
2023/04/19 09:54:22;;;;;;;0.70;0.40;;;19.00;39.60;;;;;;6200592;23;20173;-84
2023/04/19 09:56:52;;;;;;;0.55;0.40;;;18.90;39.70;;;;;;6232701;23;20147;-85
2023/04/19 09:59:25;;;;;;;1.00;0.45;;;18.90;39.90;;;;;;6188142;22;20158;-85
2023/04/19 10:01:55;;;;;;;0.40;0.40;;;18.80;39.40;;;;;;6188033;22;20229;-84
2023/04/19 10:04:21;;;;;;;0.32;0.32;;;18.90;39.30;;;;;;6231433;22;20231;-83
2023/04/19 10:06:54;;;;;;;1.58;0.47;;;19.00;39.20;;;;;;6229975;23;20200;-83
2023/04/19 10:09:20;;;;;;;1.15;0.50;;;18.80;39.50;;;;;;6202111;22;20155;-83
2023/04/19 10:11:48;;;;;;;0.32;0.32;;;18.70;39.80;;;;;;6231515;23;20152;-86
2023/04/19 10:14:15;;;;;;;0.40;0.40;;;18.80;39.80;;;;;;6231305;22;20206;-83
2023/04/19 10:16:41;;;;;;;0.50;0.40;;;18.70;39.40;;;;;;6234678;22;20151;-86
2023/04/19 10:19:09;;;;;;;0.80;0.40;;;18.80;39.30;;;;;;6264352;22;20139;-85
2023/04/19 10:21:36;;;;;;;0.30;0.30;;;18.80;39.40;;;;;;6264624;22;20155;-85
2023/04/19 10:24:02;;;;;;;0.45;0.45;;;18.80;39.60;;;;;;6237610;22;20151;-86
2023/04/19 10:26:28;;;;;;;1.33;0.55;;;18.80;39.80;;;;;;6283759;22;20281;-87
2023/04/19 10:28:55;;;;;;;0.28;0.28;;;18.70;39.30;;;;;;6268997;22;20582;-85
2023/04/19 10:31:22;;;;;;;0.80;0.38;;;18.70;39.40;;;;;;6269867;22;20467;-85
2023/04/19 10:33:52;;;;;;;0.88;0.57;;;18.70;39.50;;;;;;6269549;22;20187;-85
2023/04/19 10:36:20;;;;;;;1.15;0.40;;;18.70;39.00;;;;;;6217998;22;20151;-85
2023/04/19 10:38:48;;;;;;;1.15;0.30;;;18.60;39.10;;;;;;6189926;23;20566;-86
2023/04/19 10:41:20;;;;;;;0.30;0.30;;;18.70;39.30;;;;;;6271389;22;20186;-86
2023/04/19 10:44:08;;;;;;;1.17;0.40;;;18.80;38.70;;;;;;6277712;22;20158;-86
2023/04/19 10:46:41;;;;;;;0.40;0.40;;;18.70;38.80;;;;;;6260872;22;20143;-86
2023/04/19 10:49:13;;;;;;;0.60;0.60;;;18.80;39.00;;;;;;6219713;22;20154;-85
2023/04/19 10:51:50;;;;;;;1.65;0.60;;;18.70;39.10;;;;;;6218052;22;20158;-86
2023/04/19 10:54:30;;;;;;;1.15;0.40;;;18.70;39.70;;;;;;6219323;22;20269;-87
2023/04/19 10:57:05;;;;;;;1.45;0.47;;;18.70;39.20;;;;;;6295371;22;20219;-86
2023/04/19 10:59:32;;;;;;;1.67;0.50;;;18.70;39.30;;;;;;6275987;22;20147;-85
2023/04/19 11:02:26;;;;;;;0.47;0.47;;;18.70;39.30;;;;;;6253390;22;20154;-86
2023/04/19 11:04:57;;;;;;;0.40;0.40;;;18.70;39.30;;;;;;6200590;22;20152;-85
2023/04/19 11:07:25;;;;;;;0.40;0.40;;;18.60;39.20;;;;;;6303980;22;20151;-85
2023/04/19 11:09:53;;;;;;;0.50;0.50;;;18.70;39.20;;;;;;6241604;22;20228;-85
2023/04/19 11:12:19;;;;;;;0.68;0.50;;;18.70;39.20;;;;;;6241843;22;20160;-86
2023/04/19 11:14:56;;;;;;;0.40;0.40;;;18.70;39.10;;;;;;6266806;22;20660;-86
2023/04/19 11:17:27;;;;;;;0.77;0.40;;;18.70;39.10;;;;;;6266402;22;20148;-85
2023/04/19 11:19:56;;;;;;;0.60;0.50;;;18.70;39.10;;;;;;6237744;22;20581;-86
2023/04/19 11:22:47;;;;;;;0.43;0.43;;;18.70;39.00;;;;;;6241374;22;20132;-87
2023/04/19 11:25:20;;;;;;;0.90;0.40;;;18.60;38.90;;;;;;6263937;22;20295;-86
2023/04/19 11:27:49;;;;;;;0.50;0.50;;;18.70;38.80;;;;;;6151877;23;20159;-85
2023/04/19 11:30:19;;;;;;;0.88;0.50;;;18.70;38.70;;;;;;6173125;23;20186;-85
2023/04/19 11:32:48;;;;;;;0.80;0.47;;;18.70;38.70;;;;;;6170684;23;20544;-86
2023/04/19 11:35:20;;;;;;;0.60;0.40;;;18.70;38.70;;;;;;6167802;23;20684;-86
2023/04/19 11:37:46;;;;;;;0.55;0.50;;;18.70;38.70;;;;;;6171083;23;20155;-86
2023/04/19 11:40:18;;;;;;;0.95;0.50;;;18.70;38.60;;;;;;6174801;23;20150;-87
2023/04/19 11:42:44;;;;;;;0.93;0.50;;;18.70;38.60;;;;;;6171973;23;20154;-85
2023/04/19 11:45:23;;;;;;;0.45;0.30;;;18.70;38.50;;;;;;6168406;23;20150;-85
2023/04/19 11:47:50;;;;;;;0.63;0.60;;;18.70;38.20;;;;;;6170595;23;20192;-86
2023/04/19 11:50:32;;;;;;;0.65;0.40;;;18.70;38.20;;;;;;6196081;23;20192;-86
2023/04/19 11:52:58;;;;;;;0.50;0.50;;;18.80;38.20;;;;;;6193211;23;20176;-85
2023/04/19 11:55:25;;;;;;;1.20;0.40;;;18.80;38.10;;;;;;6173014;23;20567;-85
2023/04/19 11:58:00;;;;;;;0.40;0.30;;;18.80;38.00;;;;;;6161870;23;20147;-85
2023/04/19 12:00:29;;;;;;;0.40;0.40;;;18.70;37.90;;;;;;6209881;22;20151;-83
2023/04/19 12:02:57;;;;;;;0.40;0.40;;;18.80;37.80;;;;;;6183673;23;20151;-84
2023/04/19 12:05:23;;;;;;;0.22;0.22;;;18.80;38.00;;;;;;6257744;22;20179;-83
2023/04/19 12:08:07;;;;;;;0.40;0.40;;;18.80;38.70;;;;;;6257393;22;20258;-84
2023/04/19 12:10:44;;;;;;;0.43;0.40;;;18.80;37.70;;;;;;6208850;22;20155;-83
2023/04/19 12:13:17;;;;;;;0.82;0.40;;;18.80;37.60;;;;;;6239700;22;20143;-86
2023/04/19 12:15:56;;;;;;;0.40;0.40;;;18.90;37.60;;;;;;6210690;23;20223;-85
2023/04/19 12:18:22;;;;;;;0.50;0.50;;;18.90;37.60;;;;;;6259559;22;20188;-85
2023/04/19 12:20:48;;;;;;;0.73;0.50;;;18.80;37.60;;;;;;6234233;22;20132;-84
2023/04/19 12:23:15;;;;;;;0.90;0.50;;;18.80;37.50;;;;;;6209969;23;20151;-84
2023/04/19 12:25:48;;;;;;;8.07;1.33;;;18.90;37.50;;;;;;6268847;22;20198;-83
2023/04/19 12:28:15;;;;;;;2.60;0.93;;;18.80;37.90;;;;;;6265749;22;20123;-86
2023/04/19 12:30:46;;;;;;;0.90;0.55;;;18.70;37.60;;;;;;6291583;22;20164;-83
2023/04/19 12:33:17;;;;;;;0.70;0.40;;;18.80;38.00;;;;;;6187807;22;20300;-83
2023/04/19 12:35:57;;;;;;;1.98;0.52;;;18.80;38.00;;;;;;6240447;23;20158;-83
2023/04/19 12:38:23;;;;;;;0.75;0.43;;;18.70;38.10;;;;;;6214360;22;20197;-84
2023/04/19 12:40:49;;;;;;;0.50;0.50;;;18.80;37.70;;;;;;6264360;22;20574;-83
2023/04/19 12:43:20;;;;;;;0.82;0.60;;;18.70;38.00;;;;;;6291082;22;20151;-83
2023/04/19 12:45:46;;;;;;;0.80;0.50;;;18.70;37.90;;;;;;6187927;22;20294;-82
2023/04/19 12:48:12;;;;;;;0.65;0.60;;;18.70;37.80;;;;;;6185372;23;20218;-82
2023/04/19 12:50:51;;;;;;;0.50;0.45;;;18.80;37.90;;;;;;6184285;23;20137;-86
2023/04/19 12:53:18;;;;;;;2.25;0.90;;;18.70;38.30;;;;;;6219058;22;20212;-82
2023/04/19 12:55:47;;;;;;;0.40;0.40;;;18.80;38.10;;;;;;6289527;22;20182;-84
2023/04/19 12:58:17;;;;;;;1.80;0.55;;;18.80;38.20;;;;;;6262472;22;20158;-84
2023/04/19 13:00:43;;;;;;;0.85;0.50;;;18.80;37.90;;;;;;6262139;22;20208;-84
2023/04/19 13:03:11;;;;;;;1.95;0.75;;;18.90;37.60;;;;;;6288602;22;20158;-85
2023/04/19 13:05:37;;;;;;;0.60;0.40;;;18.90;38.20;;;;;;6185692;23;20159;-84
2023/04/19 13:08:03;;;;;;;0.45;0.43;;;18.90;37.40;;;;;;6291628;22;20128;-85
2023/04/19 13:10:29;;;;;;;1.55;0.60;;;19.00;37.40;;;;;;6264875;22;20178;-85
2023/04/19 13:12:56;;;;;;;0.70;0.50;;;18.90;37.50;;;;;;6188396;23;20147;-86
2023/04/19 13:15:21;;;;;;;1.75;0.70;;;18.90;37.60;;;;;;6238518;22;20174;-86
2023/04/19 13:17:47;;;;;;;0.63;0.60;;;18.90;37.40;;;;;;6183460;23;20187;-83
2023/04/19 13:20:13;;;;;;;2.63;0.60;;;18.90;37.40;;;;;;6288942;22;20136;-83